sensor_id;sensor_type;location;lat;lon;timestamp;pressure;altitude;pressure_sealevel;temperature;humidity
10852;BME280;5479;52.046;6.314;2023-01-04T00:00:10;101862.53;;;8.42;100.00
10852;BME280;5479;52.046;6.314;2023-01-04T00:02:38;101867.03;;;8.38;100.00
10852;BME280;5479;52.046;6.314;2023-01-04T00:05:07;101871.63;;;8.33;100.00
10852;BME280;5479;52.046;6.314;2023-01-04T00:07:36;101868.06;;;8.34;100.00
10852;BME280;5479;52.046;6.314;2023-01-04T00:10:04;101853.34;;;8.27;100.00
10852;BME280;5479;52.046;6.314;2023-01-04T00:12:34;101852.59;;;8.22;100.00
10852;BME280;5479;52.046;6.314;2023-01-04T00:15:02;101846.41;;;8.23;100.00
10852;BME280;5479;52.046;6.314;2023-01-04T00:17:30;101851.78;;;8.20;100.00
10852;BME280;5479;52.046;6.314;2023-01-04T00:19:58;101844.06;;;8.14;100.00
10852;BME280;5479;52.046;6.314;2023-01-04T00:22:26;101836.94;;;8.16;100.00
10852;BME280;5479;52.046;6.314;2023-01-04T00:24:55;101832.63;;;8.15;100.00
10852;BME280;5479;52.046;6.314;2023-01-04T00:27:24;101832.72;;;8.12;100.00
10852;BME280;5479;52.046;6.314;2023-01-04T00:29:52;101835.44;;;8.09;100.00
10852;BME280;5479;52.046;6.314;2023-01-04T00:32:20;101815.38;;;8.05;100.00
10852;BME280;5479;52.046;6.314;2023-01-04T00:34:48;101815.47;;;8.02;100.00
10852;BME280;5479;52.046;6.314;2023-01-04T00:37:19;101805.88;;;8.00;100.00
10852;BME280;5479;52.046;6.314;2023-01-04T00:39:47;101803.44;;;7.94;100.00
10852;BME280;5479;52.046;6.314;2023-01-04T00:42:16;101798.97;;;7.96;100.00
10852;BME280;5479;52.046;6.314;2023-01-04T00:44:44;101793.75;;;7.94;100.00
10852;BME280;5479;52.046;6.314;2023-01-04T00:47:12;101789.38;;;7.93;100.00
10852;BME280;5479;52.046;6.314;2023-01-04T00:49:40;101784.97;;;7.94;100.00
10852;BME280;5479;52.046;6.314;2023-01-04T00:52:08;101776.19;;;7.93;100.00
10852;BME280;5479;52.046;6.314;2023-01-04T00:54:36;101779.72;;;7.92;100.00
10852;BME280;5479;52.046;6.314;2023-01-04T00:57:04;101767.47;;;7.91;100.00
10852;BME280;5479;52.046;6.314;2023-01-04T00:59:34;101774.34;;;7.95;100.00
10852;BME280;5479;52.046;6.314;2023-01-04T01:02:02;101768.19;;;7.96;100.00
10852;BME280;5479;52.046;6.314;2023-01-04T01:04:31;101762.91;;;7.96;100.00
10852;BME280;5479;52.046;6.314;2023-01-04T01:06:59;101750.63;;;7.95;100.00
10852;BME280;5479;52.046;6.314;2023-01-04T01:09:27;101747.16;;;7.93;100.00
10852;BME280;5479;52.046;6.314;2023-01-04T01:11:55;101748.69;;;8.00;100.00
10852;BME280;5479;52.046;6.314;2023-01-04T01:14:24;101744.28;;;8.01;100.00
10852;BME280;5479;52.046;6.314;2023-01-04T01:16:54;101735.63;;;7.97;100.00
10852;BME280;5479;52.046;6.314;2023-01-04T01:19:23;101729.56;;;7.94;100.00
10852;BME280;5479;52.046;6.314;2023-01-04T01:21:51;101728.59;;;7.96;100.00
10852;BME280;5479;52.046;6.314;2023-01-04T01:24:19;101724.94;;;8.00;100.00
10852;BME280;5479;52.046;6.314;2023-01-04T01:26:47;101720.59;;;7.99;100.00
10852;BME280;5479;52.046;6.314;2023-01-04T01:29:15;101709.13;;;8.00;100.00
10852;BME280;5479;52.046;6.314;2023-01-04T01:31:43;101715.22;;;8.02;100.00
10852;BME280;5479;52.046;6.314;2023-01-04T01:34:12;101709.94;;;8.02;100.00
10852;BME280;5479;52.046;6.314;2023-01-04T01:36:43;101706.38;;;8.03;100.00
10852;BME280;5479;52.046;6.314;2023-01-04T01:39:11;101689.75;;;8.01;100.00
10852;BME280;5479;52.046;6.314;2023-01-04T01:41:39;101701.97;;;8.04;100.00
10852;BME280;5479;52.046;6.314;2023-01-04T01:47:12;101692.00;;;8.12;100.00
10852;BME280;5479;52.046;6.314;2023-01-04T01:49:43;101677.09;;;8.11;100.00
10852;BME280;5479;52.046;6.314;2023-01-04T01:52:15;101664.66;;;8.14;100.00
10852;BME280;5479;52.046;6.314;2023-01-04T01:54:47;101651.34;;;8.17;100.00
10852;BME280;5479;52.046;6.314;2023-01-04T01:57:20;101656.63;;;8.17;100.00
10852;BME280;5479;52.046;6.314;2023-01-04T01:59:50;101653.91;;;8.20;100.00
10852;BME280;5479;52.046;6.314;2023-01-04T02:02:20;101659.06;;;8.23;100.00
10852;BME280;5479;52.046;6.314;2023-01-04T02:04:50;101654.59;;;8.25;100.00
10852;BME280;5479;52.046;6.314;2023-01-04T02:07:21;101637.84;;;8.26;100.00
10852;BME280;5479;52.046;6.314;2023-01-04T02:09:49;101652.84;;;8.24;100.00
10852;BME280;5479;52.046;6.314;2023-01-04T02:12:17;101656.31;;;8.26;100.00
10852;BME280;5479;52.046;6.314;2023-01-04T02:14:48;101656.09;;;8.32;100.00
10852;BME280;5479;52.046;6.314;2023-01-04T02:17:25;101637.72;;;8.31;100.00
10852;BME280;5479;52.046;6.314;2023-01-04T02:20:14;101634.78;;;8.38;100.00
10852;BME280;5479;52.046;6.314;2023-01-04T02:26:14;101620.31;;;8.48;100.00
10852;BME280;5479;52.046;6.314;2023-01-04T02:29:08;101624.47;;;8.56;100.00
10852;BME280;5479;52.046;6.314;2023-01-04T02:31:48;101608.56;;;8.57;100.00
10852;BME280;5479;52.046;6.314;2023-01-04T02:34:23;101600.59;;;8.59;100.00
10852;BME280;5479;52.046;6.314;2023-01-04T02:36:58;101589.09;;;8.60;100.00
10852;BME280;5479;52.046;6.314;2023-01-04T02:39:33;101599.47;;;8.64;100.00
10852;BME280;5479;52.046;6.314;2023-01-04T02:42:09;101590.59;;;8.67;100.00
10852;BME280;5479;52.046;6.314;2023-01-04T02:44:42;101579.84;;;8.71;100.00
10852;BME280;5479;52.046;6.314;2023-01-04T02:47:24;101568.19;;;8.77;100.00
10852;BME280;5479;52.046;6.314;2023-01-04T02:50:19;101567.13;;;8.81;100.00
10852;BME280;5479;52.046;6.314;2023-01-04T02:53:04;101578.47;;;8.83;100.00
10852;BME280;5479;52.046;6.314;2023-01-04T02:55:45;101562.50;;;8.86;100.00
10852;BME280;5479;52.046;6.314;2023-01-04T03:01:11;101546.44;;;8.92;100.00
10852;BME280;5479;52.046;6.314;2023-01-04T03:04:06;101547.22;;;8.94;100.00
10852;BME280;5479;52.046;6.314;2023-01-04T03:07:00;101534.13;;;8.91;100.00
10852;BME280;5479;52.046;6.314;2023-01-04T03:09:32;101547.19;;;8.95;100.00
10852;BME280;5479;52.046;6.314;2023-01-04T03:12:04;101541.78;;;8.98;100.00
10852;BME280;5479;52.046;6.314;2023-01-04T03:14:54;101544.34;;;9.00;100.00
10852;BME280;5479;52.046;6.314;2023-01-04T03:17:28;101546.97;;;9.00;100.00
10852;BME280;5479;52.046;6.314;2023-01-04T03:19:59;101538.84;;;9.04;100.00
10852;BME280;5479;52.046;6.314;2023-01-04T03:22:34;101524.00;;;9.02;100.00
10852;BME280;5479;52.046;6.314;2023-01-04T03:25:24;101516.06;;;9.02;100.00
10852;BME280;5479;52.046;6.314;2023-01-04T03:28:13;101523.81;;;9.06;100.00
10852;BME280;5479;52.046;6.314;2023-01-04T03:31:03;101496.47;;;9.07;100.00
10852;BME280;5479;52.046;6.314;2023-01-04T03:33:52;101505.00;;;9.14;100.00
10852;BME280;5479;52.046;6.314;2023-01-04T03:36:55;101501.41;;;9.15;100.00
10852;BME280;5479;52.046;6.314;2023-01-04T03:39:34;101495.09;;;9.19;100.00
10852;BME280;5479;52.046;6.314;2023-01-04T03:42:29;101496.09;;;9.17;100.00
10852;BME280;5479;52.046;6.314;2023-01-04T03:45:21;101495.22;;;9.16;100.00
10852;BME280;5479;52.046;6.314;2023-01-04T03:48:12;101504.75;;;9.20;100.00
10852;BME280;5479;52.046;6.314;2023-01-04T03:51:03;101483.44;;;9.23;100.00
10852;BME280;5479;52.046;6.314;2023-01-04T03:53:37;101499.31;;;9.23;100.00
10852;BME280;5479;52.046;6.314;2023-01-04T03:56:08;101502.78;;;9.25;100.00
10852;BME280;5479;52.046;6.314;2023-01-04T03:58:38;101495.66;;;9.26;100.00
10852;BME280;5479;52.046;6.314;2023-01-04T04:01:06;101494.84;;;9.25;100.00
10852;BME280;5479;52.046;6.314;2023-01-04T04:03:34;101504.34;;;9.29;100.00
10852;BME280;5479;52.046;6.314;2023-01-04T04:06:20;101496.41;;;9.29;100.00
10852;BME280;5479;52.046;6.314;2023-01-04T04:09:06;101486.50;;;9.34;100.00
10852;BME280;5479;52.046;6.314;2023-01-04T04:11:34;101491.00;;;9.32;100.00
10852;BME280;5479;52.046;6.314;2023-01-04T04:14:02;101488.09;;;9.38;100.00
10852;BME280;5479;52.046;6.314;2023-01-04T04:16:30;101482.69;;;9.41;100.00
10852;BME280;5479;52.046;6.314;2023-01-04T04:18:59;101470.25;;;9.43;100.00
10852;BME280;5479;52.046;6.314;2023-01-04T04:21:27;101483.38;;;9.45;100.00
10852;BME280;5479;52.046;6.314;2023-01-04T04:23:56;101474.41;;;9.49;100.00
10852;BME280;5479;52.046;6.314;2023-01-04T04:26:26;101490.00;;;9.55;100.00
10852;BME280;5479;52.046;6.314;2023-01-04T04:28:54;101481.22;;;9.54;100.00
10852;BME280;5479;52.046;6.314;2023-01-04T04:31:22;101482.72;;;9.60;100.00
10852;BME280;5479;52.046;6.314;2023-01-04T04:33:50;101474.97;;;9.55;100.00
10852;BME280;5479;52.046;6.314;2023-01-04T04:36:18;101470.28;;;9.62;100.00
10852;BME280;5479;52.046;6.314;2023-01-04T04:38:46;101471.84;;;9.66;100.00
10852;BME280;5479;52.046;6.314;2023-01-04T04:41:14;101453.34;;;9.66;100.00
10852;BME280;5479;52.046;6.314;2023-01-04T04:44:01;101452.56;;;9.64;100.00
10852;BME280;5479;52.046;6.314;2023-01-04T04:46:29;101447.88;;;9.70;100.00
10852;BME280;5479;52.046;6.314;2023-01-04T04:48:57;101445.94;;;9.74;100.00
10852;BME280;5479;52.046;6.314;2023-01-04T04:51:25;101444.94;;;9.77;100.00
10852;BME280;5479;52.046;6.314;2023-01-04T04:53:53;101445.88;;;9.76;100.00
10852;BME280;5479;52.046;6.314;2023-01-04T04:56:21;101448.38;;;9.79;100.00
10852;BME280;5479;52.046;6.314;2023-01-04T04:58:49;101446.44;;;9.82;100.00
10852;BME280;5479;52.046;6.314;2023-01-04T05:01:19;101449.16;;;9.81;100.00
10852;BME280;5479;52.046;6.314;2023-01-04T05:03:47;101457.97;;;9.81;100.00
10852;BME280;5479;52.046;6.314;2023-01-04T05:06:15;101448.06;;;9.85;100.00
10852;BME280;5479;52.046;6.314;2023-01-04T05:08:43;101448.88;;;9.87;100.00
10852;BME280;5479;52.046;6.314;2023-01-04T05:11:11;101439.22;;;9.86;100.00
10852;BME280;5479;52.046;6.314;2023-01-04T05:13:40;101446.38;;;9.84;100.00
10852;BME280;5479;52.046;6.314;2023-01-04T05:16:08;101436.59;;;9.86;100.00
10852;BME280;5479;52.046;6.314;2023-01-04T05:18:38;101441.59;;;9.92;100.00
10852;BME280;5479;52.046;6.314;2023-01-04T05:21:06;101438.16;;;9.90;100.00
10852;BME280;5479;52.046;6.314;2023-01-04T05:23:34;101430.06;;;9.93;100.00
10852;BME280;5479;52.046;6.314;2023-01-04T05:26:02;101414.00;;;9.97;100.00
10852;BME280;5479;52.046;6.314;2023-01-04T05:28:30;101417.78;;;9.92;100.00
10852;BME280;5479;52.046;6.314;2023-01-04T05:30:58;101413.13;;;9.97;100.00
10852;BME280;5479;52.046;6.314;2023-01-04T05:33:26;101403.56;;;9.94;100.00
10852;BME280;5479;52.046;6.314;2023-01-04T05:35:58;101404.28;;;9.98;100.00
10852;BME280;5479;52.046;6.314;2023-01-04T05:38:27;101404.47;;;9.93;100.00
10852;BME280;5479;52.046;6.314;2023-01-04T05:40:56;101399.97;;;9.95;100.00
10852;BME280;5479;52.046;6.314;2023-01-04T05:43:24;101401.78;;;9.95;100.00
10852;BME280;5479;52.046;6.314;2023-01-04T05:45:53;101393.84;;;9.95;100.00
10852;BME280;5479;52.046;6.314;2023-01-04T05:48:23;101384.94;;;9.96;100.00
10852;BME280;5479;52.046;6.314;2023-01-04T05:50:52;101383.13;;;9.98;100.00
10852;BME280;5479;52.046;6.314;2023-01-04T05:53:23;101386.72;;;9.95;100.00
10852;BME280;5479;52.046;6.314;2023-01-04T05:55:51;101382.38;;;9.94;100.00
10852;BME280;5479;52.046;6.314;2023-01-04T05:58:19;101380.53;;;9.96;100.00
10852;BME280;5479;52.046;6.314;2023-01-04T06:00:47;101377.81;;;9.98;100.00
10852;BME280;5479;52.046;6.314;2023-01-04T06:03:15;101369.94;;;9.96;100.00
10852;BME280;5479;52.046;6.314;2023-01-04T06:05:48;101378.50;;;10.01;100.00
10852;BME280;5479;52.046;6.314;2023-01-04T06:08:16;101366.88;;;10.05;100.00
10852;BME280;5479;52.046;6.314;2023-01-04T06:10:51;101360.75;;;10.03;100.00
10852;BME280;5479;52.046;6.314;2023-01-04T06:13:19;101366.22;;;10.00;100.00
10852;BME280;5479;52.046;6.314;2023-01-04T06:15:47;101365.06;;;10.06;100.00
10852;BME280;5479;52.046;6.314;2023-01-04T06:18:15;101366.78;;;10.07;100.00
10852;BME280;5479;52.046;6.314;2023-01-04T06:20:43;101351.50;;;10.13;100.00
10852;BME280;5479;52.046;6.314;2023-01-04T06:23:10;101349.78;;;10.12;100.00
10852;BME280;5479;52.046;6.314;2023-01-04T06:25:38;101354.16;;;10.13;100.00
10852;BME280;5479;52.046;6.314;2023-01-04T06:28:08;101355.06;;;10.12;100.00
10852;BME280;5479;52.046;6.314;2023-01-04T06:30:36;101350.56;;;10.14;100.00
10852;BME280;5479;52.046;6.314;2023-01-04T06:33:04;101351.38;;;10.16;100.00
10852;BME280;5479;52.046;6.314;2023-01-04T06:35:32;101346.13;;;10.15;100.00
10852;BME280;5479;52.046;6.314;2023-01-04T06:38:01;101352.19;;;10.17;100.00
10852;BME280;5479;52.046;6.314;2023-01-04T06:40:29;101356.72;;;10.15;100.00
10852;BME280;5479;52.046;6.314;2023-01-04T06:42:57;101352.19;;;10.17;100.00
10852;BME280;5479;52.046;6.314;2023-01-04T06:45:26;101364.59;;;10.16;100.00
10852;BME280;5479;52.046;6.314;2023-01-04T06:47:54;101366.06;;;10.22;100.00
10852;BME280;5479;52.046;6.314;2023-01-04T06:50:22;101352.00;;;10.21;100.00
10852;BME280;5479;52.046;6.314;2023-01-04T06:52:50;101345.84;;;10.21;100.00
10852;BME280;5479;52.046;6.314;2023-01-04T06:55:18;101346.59;;;10.23;100.00
10852;BME280;5479;52.046;6.314;2023-01-04T06:57:46;101344.59;;;10.28;100.00
10852;BME280;5479;52.046;6.314;2023-01-04T07:00:14;101342.09;;;10.25;100.00
10852;BME280;5479;52.046;6.314;2023-01-04T07:02:44;101353.16;;;10.33;100.00
10852;BME280;5479;52.046;6.314;2023-01-04T07:05:12;101364.63;;;10.34;100.00
10852;BME280;5479;52.046;6.314;2023-01-04T07:07:40;101357.44;;;10.36;100.00
10852;BME280;5479;52.046;6.314;2023-01-04T07:10:09;101347.56;;;10.39;100.00
10852;BME280;5479;52.046;6.314;2023-01-04T07:12:37;101335.25;;;10.38;100.00
10852;BME280;5479;52.046;6.314;2023-01-04T07:15:06;101336.69;;;10.45;100.00
10852;BME280;5479;52.046;6.314;2023-01-04T07:17:35;101338.47;;;10.45;100.00
10852;BME280;5479;52.046;6.314;2023-01-04T07:20:05;101348.13;;;10.46;100.00
10852;BME280;5479;52.046;6.314;2023-01-04T07:22:34;101328.66;;;10.47;100.00
10852;BME280;5479;52.046;6.314;2023-01-04T07:25:02;101337.34;;;10.49;100.00
10852;BME280;5479;52.046;6.314;2023-01-04T07:27:30;101329.22;;;10.53;100.00
10852;BME280;5479;52.046;6.314;2023-01-04T07:29:58;101328.25;;;10.54;100.00
10852;BME280;5479;52.046;6.314;2023-01-04T07:32:26;101327.19;;;10.58;100.00
10852;BME280;5479;52.046;6.314;2023-01-04T07:34:54;101328.91;;;10.59;100.00
10852;BME280;5479;52.046;6.314;2023-01-04T07:37:25;101328.72;;;10.62;100.00
10852;BME280;5479;52.046;6.314;2023-01-04T07:39:53;101308.53;;;10.60;100.00
10852;BME280;5479;52.046;6.314;2023-01-04T07:42:21;101301.31;;;10.63;100.00
10852;BME280;5479;52.046;6.314;2023-01-04T07:44:49;101298.66;;;10.63;100.00
10852;BME280;5479;52.046;6.314;2023-01-04T07:47:17;101307.38;;;10.65;100.00
10852;BME280;5479;52.046;6.314;2023-01-04T07:49:45;101299.44;;;10.65;100.00
10852;BME280;5479;52.046;6.314;2023-01-04T07:52:14;101294.91;;;10.67;100.00
10852;BME280;5479;52.046;6.314;2023-01-04T07:54:43;101287.91;;;10.66;100.00
10852;BME280;5479;52.046;6.314;2023-01-04T07:57:11;101286.13;;;10.67;100.00
10852;BME280;5479;52.046;6.314;2023-01-04T07:59:39;101281.44;;;10.72;100.00
10852;BME280;5479;52.046;6.314;2023-01-04T08:02:08;101278.94;;;10.69;100.00
10852;BME280;5479;52.046;6.314;2023-01-04T08:04:36;101277.31;;;10.66;100.00
10852;BME280;5479;52.046;6.314;2023-01-04T08:07:04;101278.84;;;10.70;100.00
10852;BME280;5479;52.046;6.314;2023-01-04T08:09:33;101279.66;;;10.72;100.00
10852;BME280;5479;52.046;6.314;2023-01-04T08:12:02;101275.13;;;10.74;100.00
10852;BME280;5479;52.046;6.314;2023-01-04T08:14:30;101288.44;;;10.73;100.00
10852;BME280;5479;52.046;6.314;2023-01-04T08:16:58;101274.16;;;10.75;100.00
10852;BME280;5479;52.046;6.314;2023-01-04T08:19:28;101280.28;;;10.77;100.00
10852;BME280;5479;52.046;6.314;2023-01-04T08:21:56;101280.28;;;10.77;100.00
10852;BME280;5479;52.046;6.314;2023-01-04T08:24:24;101284.63;;;10.78;100.00
10852;BME280;5479;52.046;6.314;2023-01-04T08:26:52;101287.25;;;10.78;100.00
10852;BME280;5479;52.046;6.314;2023-01-04T08:29:22;101285.41;;;10.80;100.00
10852;BME280;5479;52.046;6.314;2023-01-04T08:31:50;101285.22;;;10.83;100.00
10852;BME280;5479;52.046;6.314;2023-01-04T08:34:18;101294.19;;;10.81;100.00
10852;BME280;5479;52.046;6.314;2023-01-04T08:36:47;101285.94;;;10.87;100.00
10852;BME280;5479;52.046;6.314;2023-01-04T08:39:15;101275.34;;;10.87;100.00
10852;BME280;5479;52.046;6.314;2023-01-04T08:41:44;101286.03;;;10.85;100.00
10852;BME280;5479;52.046;6.314;2023-01-04T08:44:20;101287.56;;;10.89;100.00
10852;BME280;5479;52.046;6.314;2023-01-04T08:46:50;101284.69;;;10.94;100.00
10852;BME280;5479;52.046;6.314;2023-01-04T08:49:19;101280.22;;;10.95;100.00
10852;BME280;5479;52.046;6.314;2023-01-04T08:51:48;101282.25;;;10.89;100.00
10852;BME280;5479;52.046;6.314;2023-01-04T08:54:16;101276.91;;;10.91;100.00
10852;BME280;5479;52.046;6.314;2023-01-04T08:56:44;101271.34;;;10.96;100.00
10852;BME280;5479;52.046;6.314;2023-01-04T08:59:14;101266.66;;;11.01;100.00
10852;BME280;5479;52.046;6.314;2023-01-04T09:01:42;101271.25;;;10.97;100.00
10852;BME280;5479;52.046;6.314;2023-01-04T09:04:12;101280.00;;;10.99;100.00
10852;BME280;5479;52.046;6.314;2023-01-04T09:06:40;101267.56;;;11.00;100.00
10852;BME280;5479;52.046;6.314;2023-01-04T09:09:08;101266.66;;;11.01;100.00
10852;BME280;5479;52.046;6.314;2023-01-04T09:11:37;101255.88;;;11.04;100.00
10852;BME280;5479;52.046;6.314;2023-01-04T09:14:05;101254.78;;;11.08;100.00
10852;BME280;5479;52.046;6.314;2023-01-04T09:16:34;101254.72;;;11.09;100.00
10852;BME280;5479;52.046;6.314;2023-01-04T09:19:03;101250.28;;;11.10;100.00
10852;BME280;5479;52.046;6.314;2023-01-04T09:21:34;101251.97;;;11.11;100.00
10852;BME280;5479;52.046;6.314;2023-01-04T09:24:02;101254.53;;;11.12;100.00
10852;BME280;5479;52.046;6.314;2023-01-04T09:26:31;101259.75;;;11.14;100.00
10852;BME280;5479;52.046;6.314;2023-01-04T09:28:59;101255.41;;;11.13;100.00
10852;BME280;5479;52.046;6.314;2023-01-04T09:31:27;101252.34;;;11.20;100.00
10852;BME280;5479;52.046;6.314;2023-01-04T09:33:56;101268.91;;;11.24;100.00
10852;BME280;5479;52.046;6.314;2023-01-04T09:36:24;101266.25;;;11.24;100.00
10852;BME280;5479;52.046;6.314;2023-01-04T09:39:14;101262.19;;;11.34;100.00
10852;BME280;5479;52.046;6.314;2023-01-04T09:41:45;101263.88;;;11.35;100.00
10852;BME280;5479;52.046;6.314;2023-01-04T09:44:21;101268.25;;;11.36;100.00
10852;BME280;5479;52.046;6.314;2023-01-04T09:46:54;101261.22;;;11.35;100.00
10852;BME280;5479;52.046;6.314;2023-01-04T09:49:30;101260.03;;;11.40;100.00
10852;BME280;5479;52.046;6.314;2023-01-04T09:52:03;101273.22;;;11.42;100.00
10852;BME280;5479;52.046;6.314;2023-01-04T09:54:42;101273.88;;;11.45;100.00
10852;BME280;5479;52.046;6.314;2023-01-04T09:57:16;101269.13;;;11.52;100.00
10852;BME280;5479;52.046;6.314;2023-01-04T09:59:47;101277.13;;;11.50;100.00
10852;BME280;5479;52.046;6.314;2023-01-04T10:02:21;101279.56;;;11.55;100.00
10852;BME280;5479;52.046;6.314;2023-01-04T10:04:55;101283.06;;;11.56;100.00
10852;BME280;5479;52.046;6.314;2023-01-04T10:07:28;101290.59;;;11.63;100.00
10852;BME280;5479;52.046;6.314;2023-01-04T10:09:58;101293.31;;;11.62;100.00
10852;BME280;5479;52.046;6.314;2023-01-04T10:12:35;101292.88;;;11.53;100.00
10852;BME280;5479;52.046;6.314;2023-01-04T10:15:23;101305.91;;;11.58;100.00
10852;BME280;5479;52.046;6.314;2023-01-04T10:18:08;101282.88;;;11.59;100.00
10852;BME280;5479;52.046;6.314;2023-01-04T10:20:53;101276.63;;;11.60;100.00
10852;BME280;5479;52.046;6.314;2023-01-04T10:23:32;101290.00;;;11.58;100.00
10852;BME280;5479;52.046;6.314;2023-01-04T10:26:10;101277.50;;;11.60;100.00
10852;BME280;5479;52.046;6.314;2023-01-04T10:28:50;101273.06;;;11.61;100.00
10852;BME280;5479;52.046;6.314;2023-01-04T10:31:27;101275.94;;;11.56;100.00
10852;BME280;5479;52.046;6.314;2023-01-04T10:34:02;101285.19;;;11.65;100.00
10852;BME280;5479;52.046;6.314;2023-01-04T10:36:34;101283.47;;;11.64;100.00
10852;BME280;5479;52.046;6.314;2023-01-04T10:39:03;101270.19;;;11.64;100.00
10852;BME280;5479;52.046;6.314;2023-01-04T10:41:37;101273.81;;;11.63;100.00
10852;BME280;5479;52.046;6.314;2023-01-04T10:44:09;101276.06;;;11.70;100.00
10852;BME280;5479;52.046;6.314;2023-01-04T10:46:45;101275.28;;;11.68;100.00
10852;BME280;5479;52.046;6.314;2023-01-04T10:49:20;101264.66;;;11.68;100.00
10852;BME280;5479;52.046;6.314;2023-01-04T10:51:53;101273.56;;;11.67;100.00
10852;BME280;5479;52.046;6.314;2023-01-04T10:54:29;101265.72;;;11.81;100.00
10852;BME280;5479;52.046;6.314;2023-01-04T10:57:03;101271.03;;;11.81;100.00
10852;BME280;5479;52.046;6.314;2023-01-04T10:59:38;101265.88;;;11.78;100.00
10852;BME280;5479;52.046;6.314;2023-01-04T11:02:14;101264.00;;;11.80;100.00
10852;BME280;5479;52.046;6.314;2023-01-04T11:04:51;101257.00;;;11.79;100.00
10852;BME280;5479;52.046;6.314;2023-01-04T11:07:25;101254.50;;;11.76;100.00
10852;BME280;5479;52.046;6.314;2023-01-04T11:09:58;101251.69;;;11.79;100.00
10852;BME280;5479;52.046;6.314;2023-01-04T11:12:29;101257.56;;;11.84;100.00
10852;BME280;5479;52.046;6.314;2023-01-04T11:14:57;101257.47;;;11.86;100.00
10852;BME280;5479;52.046;6.314;2023-01-04T11:17:25;101237.44;;;11.80;100.00
10852;BME280;5479;52.046;6.314;2023-01-04T11:19:56;101242.59;;;11.83;100.00
10852;BME280;5479;52.046;6.314;2023-01-04T11:22:28;101245.25;;;11.83;100.00
10852;BME280;5479;52.046;6.314;2023-01-04T11:25:04;101237.00;;;11.88;100.00
10852;BME280;5479;52.046;6.314;2023-01-04T11:27:42;101249.06;;;11.93;100.00
10852;BME280;5479;52.046;6.314;2023-01-04T11:30:16;101235.03;;;11.91;100.00
10852;BME280;5479;52.046;6.314;2023-01-04T11:32:50;101233.34;;;11.90;100.00
10852;BME280;5479;52.046;6.314;2023-01-04T11:35:41;101232.50;;;11.90;100.00
10852;BME280;5479;52.046;6.314;2023-01-04T11:38:12;101227.00;;;11.93;100.00
10852;BME280;5479;52.046;6.314;2023-01-04T11:40:41;101229.38;;;11.97;100.00
10852;BME280;5479;52.046;6.314;2023-01-04T11:43:15;101233.34;;;11.90;100.00
10852;BME280;5479;52.046;6.314;2023-01-04T11:45:58;101221.00;;;11.89;100.00
10852;BME280;5479;52.046;6.314;2023-01-04T11:48:44;101209.38;;;11.92;100.00
10852;BME280;5479;52.046;6.314;2023-01-04T11:51:19;101212.94;;;11.91;100.00
10852;BME280;5479;52.046;6.314;2023-01-04T11:54:03;101216.47;;;11.91;100.00
10852;BME280;5479;52.046;6.314;2023-01-04T11:56:32;101219.13;;;11.91;100.00
10852;BME280;5479;52.046;6.314;2023-01-04T11:59:16;101200.72;;;11.88;100.00
10852;BME280;5479;52.046;6.314;2023-01-04T12:01:48;101198.84;;;11.90;100.00
10852;BME280;5479;52.046;6.314;2023-01-04T12:04:19;101200.53;;;11.91;100.00
10852;BME280;5479;52.046;6.314;2023-01-04T12:06:50;101198.94;;;11.89;100.00
10852;BME280;5479;52.046;6.314;2023-01-04T12:09:20;101182.31;;;11.85;100.00
10852;BME280;5479;52.046;6.314;2023-01-04T12:11:50;101162.63;;;11.89;100.00
10852;BME280;5479;52.046;6.314;2023-01-04T12:14:25;101171.53;;;11.88;100.00
10852;BME280;5479;52.046;6.314;2023-01-04T12:16:57;101180.44;;;11.87;100.00
10852;BME280;5479;52.046;6.314;2023-01-04T12:19:27;101178.72;;;11.86;100.00
10852;BME280;5479;52.046;6.314;2023-01-04T12:21:58;101191.66;;;11.92;100.00
10852;BME280;5479;52.046;6.314;2023-01-04T12:24:30;101209.25;;;11.93;100.00
10852;BME280;5479;52.046;6.314;2023-01-04T12:26:59;101205.25;;;11.86;100.00
10852;BME280;5479;52.046;6.314;2023-01-04T12:29:54;101204.91;;;11.92;100.00
10852;BME280;5479;52.046;6.314;2023-01-04T12:32:47;101216.41;;;11.93;100.00
10852;BME280;5479;52.046;6.314;2023-01-04T12:35:56;101212.03;;;11.92;100.00
10852;BME280;5479;52.046;6.314;2023-01-04T12:45:16;101210.69;;;11.99;100.00
10852;BME280;5479;52.046;6.314;2023-01-04T12:47:50;101214.41;;;11.96;100.00
10852;BME280;5479;52.046;6.314;2023-01-04T12:53:55;101207.97;;;12.00;100.00
10852;BME280;5479;52.046;6.314;2023-01-04T12:57:10;101196.16;;;12.06;100.00
10852;BME280;5479;52.046;6.314;2023-01-04T12:59:54;101202.09;;;12.09;100.00
10852;BME280;5479;52.046;6.314;2023-01-04T13:02:25;101187.72;;;12.14;100.00
10852;BME280;5479;52.046;6.314;2023-01-04T13:04:55;101176.25;;;12.13;100.00
10852;BME280;5479;52.046;6.314;2023-01-04T13:07:27;101174.34;;;12.15;100.00
10852;BME280;5479;52.046;6.314;2023-01-04T13:09:59;101186.75;;;12.15;100.00
10852;BME280;5479;52.046;6.314;2023-01-04T13:12:57;101181.00;;;12.22;100.00
10852;BME280;5479;52.046;6.314;2023-01-04T13:15:42;101190.41;;;12.28;100.00
10852;BME280;5479;52.046;6.314;2023-01-04T13:18:45;101184.72;;;12.34;100.00
10852;BME280;5479;52.046;6.314;2023-01-04T13:21:16;101187.13;;;12.38;100.00
10852;BME280;5479;52.046;6.314;2023-01-04T13:23:50;101197.81;;;12.37;100.00
10852;BME280;5479;52.046;6.314;2023-01-04T13:26:36;101207.13;;;12.44;100.00
10852;BME280;5479;52.046;6.314;2023-01-04T13:29:12;101200.56;;;12.49;100.00
10852;BME280;5479;52.046;6.314;2023-01-04T13:31:45;101200.56;;;12.49;100.00
10852;BME280;5479;52.046;6.314;2023-01-04T13:34:18;101193.19;;;12.54;100.00
10852;BME280;5479;52.046;6.314;2023-01-04T13:37:01;101194.25;;;12.52;100.00
10852;BME280;5479;52.046;6.314;2023-01-04T13:39:34;101195.75;;;12.56;100.00
10852;BME280;5479;52.046;6.314;2023-01-04T13:42:04;101194.25;;;12.52;100.00